Time;durP1;ratioP1;P1;durP2;ratioP2;P2;SDS_P1;SDS_P2;PMS_P1;PMS_P2;Temp;Humidity;BMP_temperature;BMP_pressure;BME280_temperature;BME280_humidity;BME280_pressure;Samples;Min_cycle;Max_cycle;Signal;HPM_P1;HPM_P2
2023/01/11 00:00:20;;;;;;;3.97;1.30;;;7.10;99.90;;;;;;5033508;28;20333;-59
2023/01/11 00:02:47;;;;;;;2.70;1.17;;;7.20;99.90;;;;;;5032930;28;20206;-58
2023/01/11 00:05:14;;;;;;;2.87;1.20;;;7.20;99.90;;;;;;5033463;28;20206;-58
2023/01/11 00:07:40;;;;;;;2.40;1.57;;;7.20;99.90;;;;;;5033362;28;20226;-59
2023/01/11 00:10:08;;;;;;;4.20;1.50;;;7.20;99.90;;;;;;5033206;28;20214;-58
2023/01/11 00:12:36;;;;;;;3.13;1.40;;;7.30;99.90;;;;;;5032664;28;20559;-59
2023/01/11 00:15:03;;;;;;;7.87;1.60;;;7.40;99.90;;;;;;5032730;28;20245;-59
2023/01/11 00:17:30;;;;;;;4.13;1.20;;;7.50;99.90;;;;;;5033354;28;20246;-59
2023/01/11 00:19:57;;;;;;;3.10;1.43;;;7.50;99.90;;;;;;5034084;28;20206;-59
2023/01/11 00:22:23;;;;;;;3.70;1.17;;;7.50;99.90;;;;;;5034158;28;20202;-59
2023/01/11 00:24:50;;;;;;;3.97;1.40;;;7.70;99.90;;;;;;5037291;28;20198;-58
2023/01/11 00:27:17;;;;;;;4.80;1.43;;;7.80;99.90;;;;;;5037238;28;20237;-59
2023/01/11 00:29:45;;;;;;;2.83;1.27;;;7.90;99.90;;;;;;5037057;28;20206;-58
2023/01/11 00:32:12;;;;;;;5.47;1.30;;;8.00;99.90;;;;;;5037297;28;20218;-58
2023/01/11 00:34:39;;;;;;;2.33;1.30;;;8.10;99.90;;;;;;5037456;28;20212;-58
2023/01/11 00:37:06;;;;;;;1.53;0.80;;;8.20;99.90;;;;;;5037710;28;20628;-58
2023/01/11 00:39:32;;;;;;;2.67;1.13;;;8.40;99.90;;;;;;5037463;28;20213;-59
2023/01/11 00:50:13;;;;;;;2.13;1.23;;;8.90;99.90;;;;;;5037534;28;20200;-59
2023/01/11 00:52:40;;;;;;;2.63;1.00;;;9.00;99.90;;;;;;5036720;28;20708;-59
2023/01/11 00:55:07;;;;;;;4.77;1.10;;;9.20;99.90;;;;;;5037078;28;20229;-59
2023/01/11 00:57:34;;;;;;;3.47;1.07;;;9.20;99.90;;;;;;5037131;28;20230;-59
2023/01/11 01:00:03;;;;;;;3.07;1.07;;;9.20;99.90;;;;;;5037685;28;20213;-59
2023/01/11 01:02:32;;;;;;;1.80;1.23;;;9.30;99.90;;;;;;5037349;28;20203;-60
2023/01/11 01:04:59;;;;;;;3.43;1.10;;;9.40;99.90;;;;;;5036615;28;20241;-59
2023/01/11 01:07:26;;;;;;;2.00;0.90;;;9.50;99.90;;;;;;5036527;28;20234;-59
2023/01/11 01:09:53;;;;;;;2.77;0.80;;;9.60;99.90;;;;;;5036803;28;20202;-62
2023/01/11 01:15:02;;;;;;;2.30;0.80;;;9.60;99.90;;;;;;5034887;28;20205;-57
2023/01/11 01:17:28;;;;;;;3.07;1.00;;;9.60;99.90;;;;;;5036649;28;20230;-56
2023/01/11 01:19:55;;;;;;;1.27;0.73;;;9.70;99.90;;;;;;5036094;28;20218;-56
2023/01/11 01:22:22;;;;;;;3.03;0.97;;;9.70;99.90;;;;;;5035815;28;20603;-57
2023/01/11 01:24:48;;;;;;;1.57;0.73;;;9.80;99.90;;;;;;5036199;28;20260;-56
2023/01/11 01:27:16;;;;;;;2.77;1.00;;;9.90;99.90;;;;;;5036224;28;20701;-56
2023/01/11 01:29:43;;;;;;;1.30;0.80;;;10.00;99.90;;;;;;5036039;28;20712;-56
2023/01/11 01:32:11;;;;;;;1.13;0.60;;;10.00;99.90;;;;;;5035440;28;20230;-57
2023/01/11 01:34:38;;;;;;;2.73;0.70;;;10.00;99.90;;;;;;5034331;28;20217;-56
2023/01/11 01:37:05;;;;;;;2.77;0.90;;;10.10;99.90;;;;;;5035182;28;20206;-56
2023/01/11 01:39:32;;;;;;;1.37;0.80;;;10.20;99.90;;;;;;5035722;28;20615;-57
2023/01/11 01:41:59;;;;;;;1.47;0.70;;;10.30;99.90;;;;;;5035126;28;20202;-56
2023/01/11 01:44:55;;;;;;;1.60;0.70;;;10.30;99.90;;;;;;5034418;28;20202;-56
2023/01/11 01:47:32;;;;;;;1.07;0.77;;;10.30;99.90;;;;;;5035152;28;20253;-58
2023/01/11 01:50:04;;;;;;;2.13;0.70;;;10.40;99.90;;;;;;5034866;28;20221;-56
2023/01/11 01:52:33;;;;;;;2.00;0.60;;;10.50;99.90;;;;;;5034704;28;20226;-57
2023/01/11 01:55:05;;;;;;;0.97;0.50;;;10.60;99.90;;;;;;5034672;28;20218;-56
2023/01/11 01:57:37;;;;;;;0.90;0.50;;;10.60;99.90;;;;;;5034015;28;20265;-56
2023/01/11 02:00:08;;;;;;;3.70;0.80;;;10.50;99.90;;;;;;5034797;28;20218;-56
2023/01/11 02:02:39;;;;;;;1.00;0.70;;;10.50;99.90;;;;;;5034743;28;20202;-56
2023/01/11 02:05:07;;;;;;;2.60;0.80;;;10.40;99.90;;;;;;5034462;28;20206;-56
2023/01/11 02:07:37;;;;;;;1.07;0.80;;;10.40;99.90;;;;;;5034236;28;20306;-56
2023/01/11 02:10:07;;;;;;;1.53;0.60;;;10.30;99.90;;;;;;5034963;28;20210;-56
2023/01/11 02:12:37;;;;;;;1.13;0.63;;;10.30;99.90;;;;;;5034494;28;20283;-56
2023/01/11 02:15:04;;;;;;;1.93;0.60;;;10.30;99.90;;;;;;5034145;28;20579;-56
2023/01/11 02:17:31;;;;;;;1.17;0.53;;;10.20;99.90;;;;;;5034591;28;20233;-56
2023/01/11 02:20:21;;;;;;;1.10;0.70;;;10.20;99.90;;;;;;5034559;28;20233;-55
2023/01/11 02:23:20;;;;;;;1.27;0.70;;;10.20;99.90;;;;;;5034165;28;20582;-56
2023/01/11 02:26:31;;;;;;;0.60;0.40;;;10.30;99.90;;;;;;5034834;28;20674;-56
2023/01/11 02:29:04;;;;;;;0.80;0.50;;;10.20;99.90;;;;;;5034361;28;20646;-57
2023/01/11 02:31:41;;;;;;;1.00;0.50;;;10.30;99.90;;;;;;5034361;28;20202;-57
2023/01/11 02:34:19;;;;;;;0.80;0.60;;;10.30;99.90;;;;;;5034156;28;20236;-56
2023/01/11 02:36:59;;;;;;;0.90;0.47;;;10.40;99.90;;;;;;5034558;28;20211;-56
2023/01/11 02:39:32;;;;;;;0.70;0.30;;;10.50;99.90;;;;;;5035974;28;20571;-57
2023/01/11 02:45:02;;;;;;;1.90;0.53;;;10.60;99.90;;;;;;5033971;28;20208;-56
2023/01/11 02:47:38;;;;;;;2.40;0.50;;;10.60;99.90;;;;;;5033802;28;20237;-56
2023/01/11 02:50:12;;;;;;;1.40;0.63;;;10.50;99.90;;;;;;5033989;28;20241;-56
2023/01/11 02:52:49;;;;;;;1.73;0.30;;;10.70;99.90;;;;;;5033782;28;20260;-56
2023/01/11 02:55:19;;;;;;;0.43;0.40;;;10.50;99.90;;;;;;5033790;28;20285;-56
2023/01/11 02:57:48;;;;;;;1.60;0.40;;;10.60;99.90;;;;;;5033757;28;20226;-57
2023/01/11 03:00:17;;;;;;;0.80;0.60;;;10.70;99.90;;;;;;5033727;28;20236;-56
2023/01/11 03:02:44;;;;;;;1.00;0.40;;;10.80;99.90;;;;;;5033699;28;20674;-57
2023/01/11 03:05:12;;;;;;;0.97;0.57;;;10.80;99.90;;;;;;5033668;28;20210;-56
2023/01/11 03:07:53;;;;;;;0.90;0.57;;;10.80;99.90;;;;;;5033734;28;20230;-56
2023/01/11 03:10:34;;;;;;;1.60;0.50;;;10.90;99.90;;;;;;5033926;28;20210;-56
2023/01/11 03:13:11;;;;;;;2.37;0.90;;;11.00;99.90;;;;;;5033973;28;20245;-56
2023/01/11 03:16:07;;;;;;;0.40;0.40;;;11.10;99.90;;;;;;5033933;28;20504;-56
2023/01/11 03:18:46;;;;;;;1.47;0.60;;;11.10;99.90;;;;;;5033913;28;20309;-57
2023/01/11 03:21:24;;;;;;;0.77;0.50;;;11.20;99.90;;;;;;5033970;28;20206;-57
2023/01/11 03:24:00;;;;;;;1.13;0.47;;;11.20;99.90;;;;;;5033590;28;20260;-57
2023/01/11 03:26:34;;;;;;;0.77;0.40;;;11.20;99.90;;;;;;5033503;28;20210;-58
2023/01/11 03:29:10;;;;;;;1.43;0.60;;;11.10;99.90;;;;;;5033297;28;20230;-57
2023/01/11 03:31:46;;;;;;;2.20;0.70;;;11.10;99.90;;;;;;5033758;28;20210;-57
2023/01/11 03:34:18;;;;;;;0.60;0.50;;;11.00;99.90;;;;;;5033173;28;20230;-57
2023/01/11 03:36:52;;;;;;;0.40;0.30;;;11.00;99.90;;;;;;5034376;28;20209;-55
2023/01/11 03:39:26;;;;;;;1.80;0.50;;;11.00;99.90;;;;;;5033748;28;20240;-55
2023/01/11 03:41:56;;;;;;;0.50;0.40;;;11.00;99.90;;;;;;5034172;28;20202;-57
2023/01/11 03:44:26;;;;;;;0.90;0.60;;;11.00;99.90;;;;;;5033144;28;20206;-58
2023/01/11 03:46:57;;;;;;;1.10;0.60;;;11.00;99.90;;;;;;5032884;28;20206;-57
2023/01/11 03:49:29;;;;;;;2.70;0.60;;;11.00;99.90;;;;;;5032398;28;20238;-57
2023/01/11 03:51:58;;;;;;;2.30;0.73;;;11.00;99.90;;;;;;5033018;28;20214;-55
2023/01/11 03:54:28;;;;;;;1.77;0.40;;;11.00;99.90;;;;;;5031984;28;20336;-56
2023/01/11 03:57:02;;;;;;;1.20;0.47;;;10.90;99.90;;;;;;5032810;28;20214;-56
2023/01/11 03:59:29;;;;;;;0.90;0.37;;;11.00;99.90;;;;;;5036395;28;20210;-56
2023/01/11 04:01:57;;;;;;;3.60;0.60;;;11.10;99.90;;;;;;5035963;28;20207;-56
2023/01/11 04:04:24;;;;;;;0.83;0.40;;;11.10;99.90;;;;;;5035631;28;20252;-56
2023/01/11 04:06:51;;;;;;;1.00;0.50;;;11.10;99.90;;;;;;5036078;28;20206;-56
2023/01/11 04:09:18;;;;;;;0.87;0.47;;;11.10;99.90;;;;;;5036099;28;20226;-56
2023/01/11 04:11:45;;;;;;;0.60;0.30;;;11.00;99.90;;;;;;5036347;28;20210;-56
2023/01/11 04:14:11;;;;;;;27.33;19.20;;;11.00;99.90;;;;;;5035695;28;20226;-57
2023/01/11 04:16:38;;;;;;;13.13;10.33;;;10.90;99.90;;;;;;5035843;28;20218;-56
2023/01/11 04:19:06;;;;;;;2.03;0.80;;;11.00;99.90;;;;;;5035657;28;20226;-56
2023/01/11 04:21:33;;;;;;;1.70;0.50;;;11.00;99.90;;;;;;5036732;28;20655;-56
2023/01/11 04:24:00;;;;;;;0.37;0.37;;;11.10;99.90;;;;;;5037149;28;20207;-56
2023/01/11 04:26:26;;;;;;;2.00;0.50;;;11.10;99.90;;;;;;5037411;28;20280;-56
2023/01/11 04:28:53;;;;;;;1.53;0.67;;;11.10;99.90;;;;;;5037468;28;20292;-56
2023/01/11 04:31:20;;;;;;;1.20;0.37;;;11.10;99.90;;;;;;5036535;28;20214;-56
2023/01/11 04:33:46;;;;;;;0.87;0.50;;;11.10;99.90;;;;;;5036003;28;20332;-57
2023/01/11 04:36:14;;;;;;;1.17;0.57;;;11.10;99.90;;;;;;5036050;28;20716;-56
2023/01/11 04:38:41;;;;;;;2.30;0.90;;;11.20;99.90;;;;;;5036591;28;20249;-57
2023/01/11 04:43:54;;;;;;;0.40;0.40;;;11.20;99.90;;;;;;5036231;28;20224;-57
2023/01/11 04:46:21;;;;;;;0.63;0.53;;;11.20;99.90;;;;;;5036661;28;20753;-56
2023/01/11 04:48:48;;;;;;;1.27;0.70;;;11.20;99.90;;;;;;5035970;28;20610;-56
2023/01/11 04:51:16;;;;;;;2.43;0.70;;;11.20;99.90;;;;;;5036434;28;20213;-57
2023/01/11 04:53:43;;;;;;;1.47;0.90;;;11.20;99.90;;;;;;5035562;28;20720;-57
2023/01/11 04:56:11;;;;;;;1.00;0.50;;;11.20;99.90;;;;;;5035811;28;20209;-57
2023/01/11 04:58:37;;;;;;;0.67;0.40;;;11.20;99.90;;;;;;5035926;28;20273;-56
2023/01/11 05:01:08;;;;;;;0.73;0.50;;;11.20;99.90;;;;;;5035703;28;20211;-56
2023/01/11 05:03:35;;;;;;;1.10;0.70;;;11.20;99.90;;;;;;5035899;28;20633;-56
2023/01/11 05:06:01;;;;;;;1.47;0.50;;;11.10;99.90;;;;;;5036324;28;20217;-56
2023/01/11 05:08:30;;;;;;;0.53;0.40;;;11.00;99.90;;;;;;5035635;28;20226;-56
2023/01/11 05:10:58;;;;;;;0.57;0.27;;;10.90;99.90;;;;;;5035101;28;20213;-56
2023/01/11 05:13:40;;;;;;;0.93;0.50;;;10.80;99.90;;;;;;5035232;28;20697;-57
2023/01/11 05:16:07;;;;;;;0.50;0.40;;;10.80;99.90;;;;;;5035831;28;20210;-56
2023/01/11 05:18:34;;;;;;;1.30;0.50;;;10.70;99.90;;;;;;5035565;28;20271;-56
2023/01/11 05:21:01;;;;;;;0.97;0.33;;;10.60;99.90;;;;;;5035418;28;20221;-56
2023/01/11 05:23:29;;;;;;;0.40;0.40;;;10.50;99.90;;;;;;5034788;28;20206;-55
2023/01/11 05:25:56;;;;;;;2.33;0.40;;;10.50;99.90;;;;;;5035185;28;20218;-56
2023/01/11 05:28:23;;;;;;;1.40;0.70;;;10.40;99.90;;;;;;5035135;28;20225;-57
2023/01/11 05:30:52;;;;;;;1.80;1.03;;;10.50;99.90;;;;;;5035406;28;20210;-56
2023/01/11 05:33:19;;;;;;;2.03;1.00;;;10.60;99.90;;;;;;5035258;28;20222;-57
2023/01/11 05:35:45;;;;;;;1.70;0.40;;;10.70;99.90;;;;;;5035536;28;20258;-56
2023/01/11 05:38:12;;;;;;;1.20;0.43;;;10.80;99.90;;;;;;5035073;28;20696;-56
2023/01/11 05:40:41;;;;;;;0.73;0.37;;;10.90;99.90;;;;;;5035382;28;20203;-56
2023/01/11 05:43:08;;;;;;;0.67;0.40;;;10.90;99.90;;;;;;5035577;28;20432;-57
2023/01/11 05:45:36;;;;;;;2.13;0.50;;;11.00;99.90;;;;;;5034860;28;20208;-57
2023/01/11 05:48:03;;;;;;;1.20;0.90;;;11.00;99.90;;;;;;5034702;28;20234;-57
2023/01/11 05:50:30;;;;;;;1.07;0.43;;;11.00;99.90;;;;;;5035212;28;20293;-57
2023/01/11 05:52:57;;;;;;;1.20;0.50;;;11.00;99.90;;;;;;5035047;28;20213;-57
2023/01/11 05:55:24;;;;;;;0.73;0.40;;;11.00;99.90;;;;;;5034450;28;20281;-57
2023/01/11 05:57:52;;;;;;;0.80;0.60;;;11.00;99.90;;;;;;5034246;28;20226;-57
2023/01/11 06:00:19;;;;;;;0.90;0.47;;;11.00;99.90;;;;;;5034664;28;20294;-57
2023/01/11 06:02:46;;;;;;;1.50;0.83;;;11.00;99.90;;;;;;5034777;28;20206;-57
2023/01/11 06:05:13;;;;;;;1.10;0.57;;;10.90;99.90;;;;;;5034148;28;20206;-57
2023/01/11 06:07:40;;;;;;;0.60;0.60;;;10.80;99.90;;;;;;5034261;28;20245;-57
2023/01/11 06:10:07;;;;;;;0.90;0.60;;;10.60;99.90;;;;;;5034669;28;20202;-57
2023/01/11 06:12:34;;;;;;;1.80;0.50;;;10.60;99.90;;;;;;5034077;28;20214;-57
2023/01/11 06:15:02;;;;;;;0.80;0.50;;;10.50;99.90;;;;;;5033633;28;20233;-57
2023/01/11 06:17:29;;;;;;;1.40;0.90;;;10.40;99.90;;;;;;5033850;28;20234;-57
2023/01/11 06:19:56;;;;;;;0.47;0.40;;;10.30;99.90;;;;;;5034187;28;20256;-57
2023/01/11 06:22:22;;;;;;;1.03;0.43;;;10.30;99.90;;;;;;5033902;28;20678;-57
2023/01/11 06:24:49;;;;;;;1.27;0.43;;;10.20;99.90;;;;;;5034170;28;20206;-57
2023/01/11 06:27:16;;;;;;;0.60;0.40;;;10.10;99.90;;;;;;5034215;28;20233;-57
2023/01/11 06:29:43;;;;;;;0.50;0.40;;;10.10;99.90;;;;;;5034032;28;20340;-57
2023/01/11 06:32:11;;;;;;;1.77;0.50;;;10.00;99.90;;;;;;5034324;28;20213;-57
2023/01/11 06:34:38;;;;;;;1.03;0.53;;;10.00;99.90;;;;;;5033559;28;20690;-57
2023/01/11 06:37:04;;;;;;;1.13;0.50;;;10.00;99.90;;;;;;5033470;28;20217;-57
2023/01/11 06:39:31;;;;;;;1.10;0.77;;;10.00;99.90;;;;;;5034073;28;20218;-58
2023/01/11 06:41:58;;;;;;;0.63;0.40;;;9.90;99.90;;;;;;5033525;28;20678;-56
2023/01/11 06:44:24;;;;;;;1.30;0.63;;;9.90;99.90;;;;;;5033472;28;20717;-55
2023/01/11 06:46:51;;;;;;;1.70;0.83;;;9.90;99.90;;;;;;5033207;28;20245;-56
2023/01/11 06:49:19;;;;;;;0.67;0.50;;;9.80;99.90;;;;;;5033167;28;20234;-56
2023/01/11 06:51:46;;;;;;;0.97;0.70;;;9.80;99.90;;;;;;5033748;28;20211;-57
2023/01/11 06:54:13;;;;;;;1.23;0.50;;;9.80;99.90;;;;;;5033375;28;20226;-56
2023/01/11 06:56:40;;;;;;;0.63;0.33;;;9.80;99.90;;;;;;5033723;28;20573;-56
2023/01/11 06:59:06;;;;;;;1.00;0.57;;;9.90;99.90;;;;;;5033604;28;20234;-57
2023/01/11 07:01:33;;;;;;;1.43;0.50;;;9.90;99.90;;;;;;5033404;28;20236;-56
2023/01/11 07:04:00;;;;;;;0.50;0.30;;;9.80;99.90;;;;;;5033225;28;20203;-56
2023/01/11 07:06:30;;;;;;;1.03;0.50;;;9.90;99.90;;;;;;5033383;28;20626;-57
2023/01/11 07:08:58;;;;;;;1.47;1.37;;;9.80;99.90;;;;;;5033340;28;20276;-56
2023/01/11 07:11:25;;;;;;;2.23;0.83;;;9.90;99.90;;;;;;5033379;28;20209;-57
2023/01/11 07:13:51;;;;;;;1.23;1.07;;;9.90;99.90;;;;;;5033023;28;20226;-57
2023/01/11 07:16:18;;;;;;;0.90;0.67;;;10.00;99.90;;;;;;5033159;28;20229;-57
2023/01/11 07:18:45;;;;;;;1.03;0.63;;;10.00;99.90;;;;;;5032933;28;20230;-56
2023/01/11 07:21:12;;;;;;;1.33;0.60;;;10.10;99.90;;;;;;5033438;28;20210;-56
2023/01/11 07:23:40;;;;;;;1.70;0.30;;;10.10;99.90;;;;;;5033467;28;20202;-57
2023/01/11 07:26:07;;;;;;;1.93;0.60;;;10.10;99.90;;;;;;5033554;28;20212;-57
2023/01/11 07:28:33;;;;;;;0.87;0.60;;;10.10;99.90;;;;;;5032935;28;20257;-57
2023/01/11 07:31:00;;;;;;;0.90;0.60;;;10.00;99.90;;;;;;5032910;28;20206;-56
2023/01/11 07:33:27;;;;;;;1.07;0.50;;;10.10;99.90;;;;;;5034863;28;20559;-56
2023/01/11 07:35:54;;;;;;;1.33;0.73;;;10.10;99.90;;;;;;5037450;28;20241;-56
2023/01/11 07:38:21;;;;;;;1.80;1.00;;;10.10;99.90;;;;;;5037395;28;20230;-56
2023/01/11 07:40:49;;;;;;;1.23;0.80;;;10.20;99.90;;;;;;5037396;28;20235;-56
2023/01/11 07:43:17;;;;;;;0.63;0.50;;;10.30;99.90;;;;;;5036865;28;20213;-56
2023/01/11 07:45:46;;;;;;;1.63;1.13;;;10.30;99.90;;;;;;5036870;28;20670;-56
2023/01/11 07:48:14;;;;;;;6.03;3.10;;;10.40;99.90;;;;;;5037445;28;20238;-56
2023/01/11 07:50:42;;;;;;;1.90;1.07;;;10.60;99.90;;;;;;5036616;28;20238;-56
2023/01/11 07:53:09;;;;;;;2.60;1.27;;;10.70;99.90;;;;;;5036917;28;20209;-55
2023/01/11 07:55:37;;;;;;;2.27;0.80;;;11.00;99.90;;;;;;5036955;28;20226;-56
2023/01/11 07:58:05;;;;;;;0.70;0.60;;;11.10;99.90;;;;;;5036737;28;20222;-56
2023/01/11 08:00:32;;;;;;;1.10;0.43;;;11.30;99.90;;;;;;5037051;28;20210;-56
2023/01/11 08:03:00;;;;;;;1.33;0.60;;;11.50;99.90;;;;;;5036862;28;20382;-56
2023/01/11 08:05:27;;;;;;;0.67;0.40;;;11.60;99.90;;;;;;5037880;28;20206;-66
2023/01/11 08:07:54;;;;;;;1.30;0.57;;;11.70;99.90;;;;;;5037935;28;20265;-57
2023/01/11 08:10:21;;;;;;;5.23;1.13;;;11.90;99.90;;;;;;5037297;28;20218;-56
2023/01/11 08:15:49;;;;;;;3.60;0.83;;;12.10;99.90;;;;;;4974222;28;20232;-55
2023/01/11 08:18:16;;;;;;;2.23;0.70;;;12.20;99.90;;;;;;4974540;28;20567;-55
2023/01/11 08:20:44;;;;;;;2.87;0.60;;;12.30;99.90;;;;;;5001621;28;20210;-55
2023/01/11 08:23:11;;;;;;;0.50;0.40;;;12.40;99.90;;;;;;5036064;28;20213;-55
2023/01/11 08:25:38;;;;;;;2.53;2.27;;;12.60;99.90;;;;;;5035644;28;20201;-56
2023/01/11 08:28:06;;;;;;;1.43;1.30;;;12.70;99.90;;;;;;5035545;28;20318;-55
2023/01/11 08:30:33;;;;;;;0.93;0.80;;;12.70;99.90;;;;;;5036295;28;20214;-55
2023/01/11 08:33:02;;;;;;;2.40;0.57;;;12.70;99.90;;;;;;5036847;28;20203;-61
2023/01/11 08:35:30;;;;;;;0.90;0.60;;;12.70;99.90;;;;;;5035930;28;20713;-62
2023/01/11 08:37:57;;;;;;;2.23;0.73;;;12.70;99.90;;;;;;5035636;28;20222;-56
2023/01/11 08:40:24;;;;;;;3.53;0.70;;;12.80;99.90;;;;;;5035788;28;20217;-55
2023/01/11 08:42:55;;;;;;;0.60;0.50;;;12.80;99.90;;;;;;5035842;28;20213;-62
2023/01/11 08:45:22;;;;;;;1.00;0.53;;;13.00;99.90;;;;;;5035731;28;20205;-55
2023/01/11 08:47:49;;;;;;;1.00;0.60;;;13.10;99.90;;;;;;5035328;28;20292;-57
2023/01/11 08:50:18;;;;;;;0.70;0.70;;;13.10;99.90;;;;;;5035188;28;20234;-56
2023/01/11 08:52:45;;;;;;;3.50;2.93;;;13.10;99.90;;;;;;5035098;28;20290;-57
2023/01/11 08:55:11;;;;;;;3.83;0.83;;;13.10;99.90;;;;;;5034839;28;20229;-56
2023/01/11 08:57:38;;;;;;;1.93;0.70;;;13.00;99.90;;;;;;5035231;28;20289;-57
2023/01/11 09:00:07;;;;;;;1.47;0.70;;;12.90;99.90;;;;;;5034770;28;20202;-56
2023/01/11 09:02:34;;;;;;;0.53;0.40;;;12.90;99.90;;;;;;5034607;28;20207;-56
2023/01/11 09:05:00;;;;;;;1.37;0.67;;;13.00;99.90;;;;;;5034129;28;20202;-55
2023/01/11 09:07:29;;;;;;;1.30;0.57;;;13.00;99.90;;;;;;5034507;28;20710;-56
2023/01/11 09:09:56;;;;;;;1.00;0.70;;;13.00;99.90;;;;;;5034799;28;20214;-56
2023/01/11 09:12:22;;;;;;;0.90;0.70;;;12.90;99.90;;;;;;5034625;28;20219;-55
2023/01/11 09:14:49;;;;;;;1.40;0.60;;;12.90;99.90;;;;;;5034039;28;20234;-55
2023/01/11 09:17:16;;;;;;;0.67;0.47;;;13.00;99.90;;;;;;5034046;28;20216;-55
2023/01/11 09:19:43;;;;;;;1.47;0.53;;;12.90;99.90;;;;;;5034322;28;20217;-55
2023/01/11 09:22:09;;;;;;;4.50;1.00;;;12.90;99.90;;;;;;5034471;28;20213;-55
2023/01/11 09:24:38;;;;;;;0.70;0.50;;;12.80;99.90;;;;;;5034090;28;20210;-56
2023/01/11 09:27:04;;;;;;;3.03;0.80;;;12.90;99.90;;;;;;5034488;28;20217;-56
2023/01/11 09:29:31;;;;;;;1.37;0.60;;;12.90;99.90;;;;;;5034236;28;20748;-56
2023/01/11 09:31:58;;;;;;;2.37;0.80;;;12.90;99.90;;;;;;5034077;28;20648;-57
2023/01/11 09:34:26;;;;;;;1.47;0.70;;;13.00;99.90;;;;;;5034015;28;20206;-56
2023/01/11 09:36:54;;;;;;;1.10;0.70;;;13.00;99.90;;;;;;5034371;28;20229;-56
2023/01/11 09:39:25;;;;;;;1.37;0.93;;;13.00;99.90;;;;;;5033851;28;20234;-56
2023/01/11 09:42:17;;;;;;;0.77;0.60;;;13.10;99.90;;;;;;5033968;28;20210;-56
2023/01/11 09:44:50;;;;;;;1.03;0.63;;;13.20;99.90;;;;;;5033978;28;20268;-57
2023/01/11 09:47:25;;;;;;;2.43;0.87;;;13.20;99.90;;;;;;5033820;28;20206;-57
2023/01/11 09:50:00;;;;;;;3.57;0.60;;;13.20;99.90;;;;;;5034003;28;20576;-55
2023/01/11 09:52:32;;;;;;;1.20;0.70;;;13.30;99.90;;;;;;5033752;28;20263;-55
2023/01/11 09:55:00;;;;;;;1.10;0.73;;;13.20;99.90;;;;;;5033092;28;20299;-56
2023/01/11 09:57:44;;;;;;;1.23;0.80;;;13.20;99.90;;;;;;5033520;28;20252;-55
2023/01/11 10:00:19;;;;;;;0.63;0.50;;;13.20;99.90;;;;;;5033590;28;20220;-55
2023/01/11 10:02:58;;;;;;;0.87;0.67;;;13.20;99.90;;;;;;5033464;28;20210;-55
2023/01/11 10:05:40;;;;;;;1.27;0.90;;;13.10;99.90;;;;;;5033153;28;20233;-56
2023/01/11 10:08:26;;;;;;;4.00;2.20;;;13.10;99.90;;;;;;5033373;28;20226;-56
2023/01/11 10:11:01;;;;;;;3.93;1.00;;;13.10;99.90;;;;;;5033479;28;20210;-56
2023/01/11 10:13:42;;;;;;;1.30;0.90;;;13.10;99.90;;;;;;5033162;28;20208;-55
2023/01/11 10:16:20;;;;;;;1.20;1.00;;;13.20;99.90;;;;;;5033379;28;20229;-56
2023/01/11 10:19:01;;;;;;;2.47;1.10;;;13.30;99.90;;;;;;5033087;28;20718;-55
2023/01/11 10:21:35;;;;;;;1.27;0.60;;;13.30;99.90;;;;;;5033454;28;20210;-55
2023/01/11 10:24:10;;;;;;;2.07;0.93;;;13.30;99.90;;;;;;5032946;28;20308;-57
2023/01/11 10:26:40;;;;;;;1.53;0.70;;;13.30;99.90;;;;;;5033150;28;20225;-56
2023/01/11 10:29:44;;;;;;;2.30;0.70;;;13.30;99.90;;;;;;5033312;28;20262;-56
2023/01/11 10:32:44;;;;;;;1.30;0.63;;;13.30;99.90;;;;;;5032860;28;20649;-57
2023/01/11 10:35:28;;;;;;;1.17;0.50;;;13.20;99.90;;;;;;5033118;28;20729;-55
2023/01/11 10:38:25;;;;;;;0.70;0.60;;;13.20;99.90;;;;;;5033334;28;20230;-56
2023/01/11 10:41:10;;;;;;;4.57;0.63;;;13.20;99.90;;;;;;5033023;28;20674;-55
2023/01/11 10:43:41;;;;;;;1.30;0.80;;;13.20;99.90;;;;;;5033185;28;20210;-56
2023/01/11 10:46:13;;;;;;;2.30;0.73;;;13.20;99.90;;;;;;5033017;28;20207;-57
2023/01/11 10:48:41;;;;;;;1.23;0.80;;;13.20;99.90;;;;;;5032813;28;20230;-55
2023/01/11 10:51:23;;;;;;;0.70;0.60;;;13.30;99.90;;;;;;5032952;28;20214;-55
2023/01/11 10:54:00;;;;;;;3.70;0.70;;;13.20;99.90;;;;;;5032867;28;20202;-55
2023/01/11 10:56:40;;;;;;;1.80;0.60;;;13.20;99.90;;;;;;5032808;28;20715;-55
2023/01/11 10:59:24;;;;;;;2.20;0.80;;;13.20;99.90;;;;;;5033193;28;20226;-56
2023/01/11 11:02:02;;;;;;;1.97;0.63;;;13.20;99.90;;;;;;5033157;28;20685;-55
2023/01/11 11:04:45;;;;;;;0.93;0.60;;;13.20;99.90;;;;;;5032835;28;20690;-55
2023/01/11 11:07:18;;;;;;;0.93;0.73;;;13.30;99.90;;;;;;5033295;28;20206;-55
2023/01/11 11:09:53;;;;;;;3.30;2.40;;;13.30;99.90;;;;;;5033593;28;20211;-56
2023/01/11 11:12:25;;;;;;;3.40;1.60;;;13.40;99.90;;;;;;5033754;28;20796;-56
2023/01/11 11:15:02;;;;;;;1.40;0.80;;;13.50;99.90;;;;;;5033326;28;20218;-56
2023/01/11 11:17:33;;;;;;;1.13;0.70;;;13.50;99.90;;;;;;5033339;28;20702;-56
2023/01/11 11:20:00;;;;;;;1.00;0.80;;;13.40;99.90;;;;;;5034091;28;20296;-55
2023/01/11 11:22:27;;;;;;;2.50;1.23;;;13.40;99.90;;;;;;5034382;28;20701;-55
2023/01/11 11:24:59;;;;;;;1.40;1.03;;;13.50;99.90;;;;;;5034822;28;20229;-55
2023/01/11 11:27:30;;;;;;;1.20;0.80;;;13.50;99.90;;;;;;5034521;28;20288;-56
2023/01/11 11:29:57;;;;;;;1.97;1.00;;;13.40;99.90;;;;;;5034411;28;20191;-55
2023/01/11 11:32:27;;;;;;;3.00;1.20;;;13.40;99.90;;;;;;5034119;28;20221;-55
2023/01/11 11:34:55;;;;;;;1.93;1.00;;;13.50;99.90;;;;;;5033782;28;20217;-56
2023/01/11 11:37:28;;;;;;;1.27;0.90;;;13.50;99.90;;;;;;5034124;28;20217;-56
2023/01/11 11:39:56;;;;;;;1.60;1.40;;;13.50;99.90;;;;;;5034187;28;20280;-55
2023/01/11 11:42:24;;;;;;;2.47;1.20;;;13.60;99.90;;;;;;5034128;28;20569;-56
2023/01/11 11:45:14;;;;;;;1.80;1.20;;;13.60;99.90;;;;;;5033710;28;20207;-56
2023/01/11 11:47:42;;;;;;;1.20;0.77;;;13.60;99.90;;;;;;5033903;28;20230;-57
2023/01/11 11:50:25;;;;;;;2.20;1.10;;;13.70;99.90;;;;;;5034262;28;20206;-54
2023/01/11 11:52:59;;;;;;;1.17;0.87;;;13.70;99.90;;;;;;5034076;28;20224;-55
2023/01/11 11:55:29;;;;;;;1.27;0.90;;;13.70;99.90;;;;;;5033904;28;20336;-55
2023/01/11 11:57:58;;;;;;;2.40;1.20;;;13.80;99.90;;;;;;5033384;28;20226;-55
2023/01/11 12:00:29;;;;;;;1.23;0.90;;;13.80;99.90;;;;;;5033063;28;20202;-55
2023/01/11 12:03:00;;;;;;;2.27;1.00;;;13.90;99.90;;;;;;5032878;28;20284;-55
2023/01/11 12:05:28;;;;;;;1.00;0.80;;;13.80;99.90;;;;;;5032638;28;20667;-59
2023/01/11 12:07:56;;;;;;;1.73;0.93;;;13.70;99.90;;;;;;5033690;28;20237;-63
2023/01/11 12:10:25;;;;;;;2.37;1.27;;;13.80;99.90;;;;;;5033970;28;20217;-64
2023/01/11 12:12:54;;;;;;;2.73;1.10;;;13.80;99.90;;;;;;5033789;28;20213;-62
2023/01/11 12:15:25;;;;;;;1.33;0.90;;;13.70;99.90;;;;;;5033396;28;20222;-62
2023/01/11 12:17:53;;;;;;;1.77;1.03;;;13.70;99.90;;;;;;5034580;28;20234;-63
2023/01/11 12:20:34;;;;;;;4.80;1.10;;;13.80;99.90;;;;;;5037095;28;20298;-58
2023/01/11 12:23:23;;;;;;;2.27;0.80;;;13.90;99.90;;;;;;5036134;28;20206;-56
2023/01/11 12:26:23;;;;;;;1.50;0.80;;;13.90;99.90;;;;;;5031299;28;20209;-56
2023/01/11 12:29:08;;;;;;;1.53;0.80;;;14.00;99.90;;;;;;5035653;28;20214;-56
2023/01/11 12:31:45;;;;;;;1.10;0.90;;;14.00;99.90;;;;;;5035674;28;20264;-56
2023/01/11 12:34:31;;;;;;;2.10;0.60;;;14.00;99.90;;;;;;5035550;28;20244;-56
2023/01/11 12:37:09;;;;;;;1.97;0.97;;;14.00;99.90;;;;;;5035308;28;20261;-56
2023/01/11 12:39:43;;;;;;;1.73;0.93;;;14.00;99.90;;;;;;5035681;28;20628;-55
2023/01/11 12:42:31;;;;;;;3.00;0.63;;;13.90;99.90;;;;;;5035751;28;20629;-55
2023/01/11 12:45:08;;;;;;;0.87;0.50;;;14.00;99.90;;;;;;5035265;28;20549;-55
2023/01/11 12:47:50;;;;;;;2.93;1.70;;;14.10;99.90;;;;;;5035070;28;20652;-56
2023/01/11 12:50:23;;;;;;;1.27;1.10;;;14.10;99.90;;;;;;5035325;28;20301;-57
2023/01/11 12:53:19;;;;;;;1.37;1.03;;;14.20;99.90;;;;;;5035283;28;20210;-56
2023/01/11 12:56:06;;;;;;;2.77;0.60;;;14.20;99.90;;;;;;5035145;28;20313;-56
2023/01/11 12:58:40;;;;;;;1.43;0.60;;;14.20;99.90;;;;;;5035449;28;20269;-57
2023/01/11 13:01:18;;;;;;;1.70;0.90;;;14.10;99.90;;;;;;5035219;28;20623;-57
2023/01/11 13:04:39;;;;;;;1.87;0.90;;;14.10;99.90;;;;;;5035259;28;20280;-57
2023/01/11 13:07:14;;;;;;;1.90;1.30;;;14.20;99.90;;;;;;5003429;28;20214;-57
2023/01/11 13:09:57;;;;;;;2.00;1.27;;;14.20;99.90;;;;;;5034795;28;20673;-56
2023/01/11 13:12:30;;;;;;;2.03;0.97;;;14.10;99.90;;;;;;5034941;28;20217;-57
2023/01/11 13:15:09;;;;;;;1.90;0.77;;;14.10;99.90;;;;;;5034706;28;20297;-56
2023/01/11 13:17:41;;;;;;;2.13;0.53;;;14.10;99.90;;;;;;5034903;28;20705;-57
2023/01/11 13:20:30;;;;;;;2.20;0.70;;;14.10;99.90;;;;;;5035033;28;20602;-58
2023/01/11 13:23:02;;;;;;;1.93;0.70;;;14.10;99.90;;;;;;5034855;28;20238;-57
2023/01/11 13:25:35;;;;;;;3.47;0.90;;;14.00;99.90;;;;;;5034407;28;20254;-56
2023/01/11 13:28:10;;;;;;;2.60;1.80;;;14.00;99.90;;;;;;5034747;28;20226;-57